Gaspe, Gaspe Airport (CYGP)

NameGaspe Airport
CityGaspe
CountryCanada
ICAOCYGP
IATAYGP
Altitude34 m
CoordinatesGoogle Map
Live Air TrafficLiveATC.net
METARCYGP 241000Z 28012G24KT 250V330 15SM OVC110 12/04 A2963 RMK AC8 SLP036 DENSITY ALT 200FT
2019-06-24 10:00:00 Wind: West (280°) 6.17 m/s - Visibility: 24140.1 m - Temperature: 12 °C - Dew point: 4 °C - Humidity: 58.3% - Pressure: 1003.39 hPa
Statistics

The table below shows the detailed information of all flights to/from Gaspe, Gaspe Airport (CYGP).